createdAt,value
2018-11-03T00:00:37.125Z,77.39
2018-11-03T00:03:06.905Z,78.08
2018-11-03T00:05:35.737Z,78.82
2018-11-03T00:08:04.768Z,78.82
2018-11-03T00:10:34.137Z,78.47
2018-11-03T00:13:03.999Z,79.03
2018-11-03T00:15:32.924Z,78.88
2018-11-03T00:18:02.589Z,79.12
2018-11-03T00:20:31.746Z,79.48
2018-11-03T00:23:01.125Z,79.33
2018-11-03T00:25:30.460Z,80.01
2018-11-03T00:27:59.117Z,80.04
2018-11-03T00:30:28.102Z,79.72
2018-11-03T00:32:58.456Z,79.02
2018-11-03T00:35:27.876Z,79.68
2018-11-03T00:37:56.913Z,79.47
2018-11-03T00:40:25.880Z,80.57
2018-11-03T00:42:54.932Z,80.84
2018-11-03T00:45:24.431Z,81.87
2018-11-03T00:47:53.502Z,82.29
2018-11-03T00:50:22.308Z,82.08
2018-11-03T00:52:51.969Z,82.39
2018-11-03T00:55:21.281Z,82.11
2018-11-03T00:57:50.368Z,82.07
2018-11-03T01:00:19.697Z,81.50
2018-11-03T01:02:49.920Z,81.35
2018-11-03T01:05:19.111Z,80.81
2018-11-03T01:07:48.548Z,80.52
2018-11-03T01:10:17.755Z,80.35
2018-11-03T01:12:47.739Z,80.74
2018-11-03T01:15:18.444Z,80.58
2018-11-03T01:17:47.378Z,80.49
2018-11-03T01:20:17.638Z,81.04
2018-11-03T01:22:47.126Z,80.90
2018-11-03T01:25:16.323Z,81.15
2018-11-03T01:27:45.955Z,81.36
2018-11-03T01:30:16.021Z,81.52
2018-11-03T01:32:45.173Z,81.43
2018-11-03T01:35:13.788Z,80.76
2018-11-03T01:37:42.703Z,80.44
2018-11-03T01:40:12.741Z,80.83
2018-11-03T01:42:41.757Z,81.77
2018-11-03T01:45:10.465Z,81.81
2018-11-03T01:47:39.402Z,81.80
2018-11-03T01:50:09.556Z,81.14
2018-11-03T01:52:39.197Z,80.81
2018-11-03T01:55:08.609Z,81.16
2018-11-03T01:57:38.107Z,81.48
2018-11-03T02:00:07.587Z,81.61
2018-11-03T02:02:36.351Z,82.06
2018-11-03T02:05:05.282Z,82.32
2018-11-03T02:07:34.960Z,82.10
2018-11-03T02:10:03.658Z,82.12
2018-11-03T02:12:33.186Z,82.42
2018-11-03T02:15:02.159Z,82.06
2018-11-03T02:17:31.170Z,81.60
2018-11-03T02:20:00.134Z,81.56
2018-11-03T02:22:29.403Z,82.12
2018-11-03T02:24:58.989Z,82.00
2018-11-03T02:27:27.997Z,81.52
2018-11-03T02:29:56.898Z,81.16
2018-11-03T02:32:26.417Z,81.39
2018-11-03T02:34:55.354Z,80.71
2018-11-03T02:37:25.005Z,81.31
2018-11-03T02:39:53.885Z,81.64
2018-11-03T02:42:22.702Z,81.29
2018-11-03T02:44:51.563Z,81.09
2018-11-03T02:47:20.372Z,81.27
2018-11-03T02:49:48.960Z,81.14
2018-11-03T02:52:18.434Z,81.37
2018-11-03T02:54:47.335Z,80.86
2018-11-03T02:57:16.229Z,81.09
2018-11-03T02:59:45.598Z,81.43
2018-11-03T03:02:15.095Z,81.92
2018-11-03T03:04:44.280Z,82.52
2018-11-03T03:07:14.004Z,82.32
2018-11-03T03:09:42.989Z,82.30
2018-11-03T03:12:12.182Z,82.93
2018-11-03T03:14:41.664Z,83.09
2018-11-03T03:17:11.044Z,83.32
2018-11-03T03:19:40.240Z,83.94
2018-11-03T03:22:09.151Z,83.69
2018-11-03T03:24:38.577Z,83.19
2018-11-03T03:27:07.136Z,83.38
2018-11-03T03:29:36.148Z,83.32
2018-11-03T03:32:05.626Z,83.71
2018-11-03T03:34:35.328Z,83.67
2018-11-03T03:37:04.472Z,84.00
2018-11-03T03:39:34.099Z,84.29
2018-11-03T03:42:03.537Z,84.57
2018-11-03T03:44:32.601Z,84.55
2018-11-03T03:47:02.056Z,84.83
2018-11-03T03:49:31.265Z,84.85
2018-11-03T03:52:00.697Z,84.71
2018-11-03T03:54:29.589Z,84.68
2018-11-03T03:56:58.194Z,84.79
2018-11-03T03:59:27.311Z,85.00
2018-11-03T04:01:56.581Z,84.58
2018-11-03T04:04:25.970Z,84.67
2018-11-03T04:06:55.540Z,84.31
2018-11-03T04:09:24.631Z,84.04
2018-11-03T04:11:54.040Z,84.22
2018-11-03T04:14:22.932Z,84.21
2018-11-03T04:16:52.414Z,84.19
2018-11-03T04:19:21.455Z,84.29
2018-11-03T04:21:50.811Z,84.38
2018-11-03T04:24:19.402Z,84.36
2018-11-03T04:26:48.458Z,84.19
2018-11-03T04:29:18.084Z,84.27
2018-11-03T04:31:47.139Z,84.06
2018-11-03T04:34:16.492Z,84.86
2018-11-03T04:36:45.640Z,84.61
2018-11-03T04:39:15.256Z,85.07
2018-11-03T04:41:44.170Z,85.39
2018-11-03T04:44:13.484Z,85.60
2018-11-03T04:46:42.859Z,85.41
2018-11-03T04:49:12.010Z,86.01
2018-11-03T04:51:41.439Z,86.56
2018-11-03T04:54:10.931Z,86.92
2018-11-03T04:56:39.543Z,87.29
2018-11-03T04:59:09.376Z,87.55
2018-11-03T05:01:38.165Z,88.66
2018-11-03T05:04:07.112Z,88.72
2018-11-03T05:06:37.114Z,88.53
2018-11-03T05:09:08.413Z,88.67
2018-11-03T05:11:37.608Z,88.56
2018-11-03T05:14:08.020Z,88.37
2018-11-03T05:16:37.228Z,88.45
2018-11-03T05:19:06.429Z,88.48
2018-11-03T05:21:35.439Z,88.38
2018-11-03T05:24:04.842Z,87.89
2018-11-03T05:26:34.077Z,88.25
2018-11-03T05:29:03.679Z,88.08
2018-11-03T05:31:32.620Z,88.36
2018-11-03T05:34:01.723Z,88.34
2018-11-03T05:36:30.893Z,88.55
2018-11-03T05:39:00.044Z,88.65
2018-11-03T05:41:28.940Z,88.68
2018-11-03T05:43:57.817Z,89.13
2018-11-03T05:46:26.720Z,89.12
2018-11-03T05:48:55.778Z,89.10
2018-11-03T05:51:25.065Z,89.00
2018-11-03T05:53:54.187Z,89.07
2018-11-03T05:56:23.447Z,88.72
2018-11-03T05:58:52.819Z,88.58
2018-11-03T06:01:22.975Z,88.42
2018-11-03T06:03:52.005Z,87.81
2018-11-03T06:06:20.920Z,88.34
2018-11-03T06:08:49.767Z,87.94
2018-11-03T06:11:18.869Z,88.21
2018-11-03T06:13:48.398Z,88.59
2018-11-03T06:16:17.523Z,88.53
2018-11-03T06:18:47.213Z,88.82
2018-11-03T06:21:16.842Z,88.94
2018-11-03T06:23:46.358Z,88.98
2018-11-03T06:26:15.002Z,89.05
2018-11-03T06:28:44.269Z,88.99
2018-11-03T06:31:13.182Z,88.82
2018-11-03T06:33:43.201Z,89.00
2018-11-03T06:36:12.546Z,88.95
2018-11-03T06:38:41.685Z,88.97
2018-11-03T06:41:10.954Z,89.23
2018-11-03T06:43:40.148Z,89.31
2018-11-03T06:46:09.550Z,89.16
2018-11-03T06:48:38.661Z,88.95
2018-11-03T06:51:08.067Z,89.26
2018-11-03T06:53:37.197Z,88.90
2018-11-03T06:56:05.939Z,88.91
2018-11-03T06:58:35.853Z,89.03
2018-11-03T07:01:05.098Z,88.71
2018-11-03T07:03:34.380Z,88.74
2018-11-03T07:06:03.799Z,88.80
2018-11-03T07:08:33.095Z,89.15
2018-11-03T07:11:02.008Z,89.38
2018-11-03T07:13:31.132Z,89.67
2018-11-03T07:15:59.958Z,90.12
2018-11-03T07:18:29.140Z,90.51
2018-11-03T07:20:58.473Z,90.53
2018-11-03T07:23:29.499Z,90.05
2018-11-03T07:25:59.570Z,90.22
2018-11-03T07:28:37.552Z,90.31
2018-11-03T07:31:08.925Z,89.78
2018-11-03T07:33:48.165Z,89.91
2018-11-03T07:36:32.922Z,90.35
2018-11-03T07:39:36.325Z,90.18
2018-11-03T07:42:10.554Z,90.67
2018-11-03T07:44:39.920Z,91.13
2018-11-03T07:47:14.798Z,91.25
2018-11-03T07:49:52.961Z,91.05
2018-11-03T07:52:28.409Z,90.61
2018-11-03T07:55:04.029Z,90.53
2018-11-03T07:57:37.594Z,90.65
2018-11-03T08:00:10.931Z,90.14
2018-11-03T08:02:42.974Z,89.41
2018-11-03T08:05:14.748Z,89.30
2018-11-03T08:07:43.656Z,88.96
2018-11-03T08:10:13.150Z,89.12
2018-11-03T08:12:41.983Z,89.12
2018-11-03T08:15:11.751Z,88.87
2018-11-03T08:17:50.475Z,88.68
2018-11-03T08:20:34.526Z,88.22
2018-11-03T08:23:08.807Z,88.03
2018-11-03T08:25:53.927Z,87.52
2018-11-03T08:28:28.057Z,87.30
2018-11-03T08:31:00.634Z,86.87
2018-11-03T08:33:33.279Z,86.12
2018-11-03T08:36:12.863Z,85.25
2018-11-03T08:38:47.908Z,84.83
2018-11-03T08:41:17.202Z,84.83
2018-11-03T08:43:46.309Z,83.76
2018-11-03T08:46:26.092Z,83.26
2018-11-03T08:49:04.770Z,82.81
2018-11-03T08:51:43.160Z,83.23
2018-11-03T08:54:16.742Z,81.88
2018-11-03T08:59:33.409Z,81.21
2018-11-03T09:02:02.187Z,80.35
2018-11-03T09:04:43.497Z,80.48
2018-11-03T09:07:26.623Z,79.44
2018-11-03T09:09:56.697Z,79.00
2018-11-03T09:12:27.631Z,78.79
2018-11-03T09:14:58.169Z,76.99
2018-11-03T09:17:42.203Z,74.78
2018-11-03T09:20:37.111Z,72.82
2018-11-03T09:23:24.822Z,70.71
2018-11-03T09:25:59.454Z,69.84
2018-11-03T09:28:40.916Z,68.36
2018-11-03T09:31:21.354Z,67.53
2018-11-03T09:34:01.693Z,66.73
2018-11-03T09:36:38.470Z,67.16
2018-11-03T09:39:09.699Z,65.69
2018-11-03T09:41:42.899Z,64.21
2018-11-03T09:44:22.844Z,64.90
2018-11-03T09:46:56.374Z,63.67
2018-11-03T09:49:40.413Z,63.21
2018-11-03T09:52:16.979Z,63.14
2018-11-03T09:54:57.212Z,61.96
2018-11-03T09:57:28.804Z,60.93
2018-11-03T09:59:58.278Z,60.70
2018-11-03T10:02:28.937Z,61.38
2018-11-03T10:04:59.556Z,60.77
2018-11-03T10:07:28.485Z,60.45
2018-11-03T10:09:58.052Z,58.44
2018-11-03T10:12:26.657Z,58.37
2018-11-03T10:14:58.265Z,58.78
2018-11-03T10:17:55.796Z,56.69
2018-11-03T10:20:29.566Z,57.74
2018-11-03T10:23:09.943Z,56.76
2018-11-03T10:25:40.321Z,56.86
2018-11-03T10:28:10.338Z,55.75
2018-11-03T10:30:45.438Z,55.93
2018-11-03T10:33:14.318Z,54.53
2018-11-03T10:35:43.657Z,56.05
2018-11-03T10:38:13.110Z,55.32
2018-11-03T10:40:43.023Z,54.96
2018-11-03T10:43:12.185Z,54.58
2018-11-03T10:45:42.624Z,54.27
2018-11-03T10:48:12.051Z,53.13
2018-11-03T10:50:41.351Z,53.80
2018-11-03T10:53:10.779Z,53.54
2018-11-03T10:55:39.852Z,53.51
2018-11-03T10:58:08.815Z,53.43
2018-11-03T11:00:43.575Z,54.01
2018-11-03T11:03:17.626Z,51.93
2018-11-03T11:05:52.890Z,51.88
2018-11-03T11:08:26.574Z,52.66
2018-11-03T11:11:00.417Z,52.53
2018-11-03T11:13:31.058Z,52.74
2018-11-03T11:16:00.618Z,51.91
2018-11-03T11:18:29.680Z,52.44
2018-11-03T11:20:59.295Z,51.30
2018-11-03T11:23:29.185Z,51.84
2018-11-03T11:25:58.281Z,50.81
2018-11-03T11:28:27.326Z,50.01
2018-11-03T11:30:58.262Z,50.25
2018-11-03T11:33:26.922Z,50.25
2018-11-03T11:35:56.130Z,49.86
2018-11-03T11:38:25.871Z,50.66
2018-11-03T11:40:55.861Z,50.09
2018-11-03T11:43:24.944Z,49.84
2018-11-03T11:45:54.208Z,48.72
2018-11-03T11:48:23.272Z,48.17
2018-11-03T11:50:53.102Z,47.56
2018-11-03T11:53:22.152Z,47.42
2018-11-03T11:55:51.605Z,47.45
2018-11-03T11:58:20.424Z,48.06
2018-11-03T12:00:49.246Z,46.45
2018-11-03T12:03:18.861Z,46.97
2018-11-03T12:05:48.560Z,46.61
2018-11-03T12:08:17.536Z,46.68
2018-11-03T12:10:47.897Z,45.45
2018-11-03T12:13:17.574Z,44.36
2018-11-03T12:15:46.705Z,44.66
2018-11-03T12:18:15.940Z,44.13
2018-11-03T12:20:45.158Z,44.25
2018-11-03T12:23:13.944Z,43.52
2018-11-03T12:25:44.430Z,43.65
2018-11-03T12:28:13.749Z,42.10
2018-11-03T12:30:42.685Z,41.96
2018-11-03T12:33:12.335Z,41.52
2018-11-03T12:35:41.450Z,40.85
2018-11-03T12:38:11.296Z,39.91
2018-11-03T12:40:40.492Z,39.58
2018-11-03T12:43:09.621Z,39.11
2018-11-03T12:45:38.818Z,38.89
2018-11-03T12:48:08.619Z,39.32
2018-11-03T12:50:37.746Z,39.91
2018-11-03T12:53:07.638Z,39.54
2018-11-03T12:55:37.035Z,38.67
2018-11-03T12:58:07.141Z,37.34
2018-11-03T13:00:36.346Z,37.39
2018-11-03T13:03:06.056Z,37.38
2018-11-03T13:05:35.880Z,36.68
2018-11-03T13:08:05.212Z,36.96
2018-11-03T13:10:35.233Z,37.04
2018-11-03T13:13:04.552Z,36.04
2018-11-03T13:15:33.671Z,35.54
2018-11-03T13:18:03.103Z,35.24
2018-11-03T13:20:31.954Z,33.76
2018-11-03T13:23:01.154Z,34.35
2018-11-03T13:25:30.723Z,33.67
2018-11-03T13:27:59.945Z,33.93
2018-11-03T13:30:28.784Z,34.01
2018-11-03T13:32:58.097Z,35.00
2018-11-03T13:35:27.605Z,33.16
2018-11-03T13:37:56.607Z,33.68
2018-11-03T13:40:26.090Z,33.00
2018-11-03T13:42:55.938Z,33.34
2018-11-03T13:45:25.375Z,33.31
2018-11-03T13:47:54.630Z,32.78
2018-11-03T13:50:24.088Z,31.62
2018-11-03T13:52:53.537Z,32.54
2018-11-03T13:55:22.722Z,33.08
2018-11-03T13:57:51.308Z,33.58
2018-11-03T14:00:20.527Z,35.62
2018-11-03T14:02:49.547Z,37.64
2018-11-03T14:05:18.639Z,37.83
2018-11-03T14:07:47.638Z,38.71
2018-11-03T14:10:17.461Z,37.56
2018-11-03T14:12:47.268Z,37.01
2018-11-03T14:15:17.419Z,37.41
2018-11-03T14:17:46.768Z,36.48
2018-11-03T14:20:16.928Z,35.67
2018-11-03T14:22:46.845Z,36.09
2018-11-03T14:25:17.304Z,34.49
2018-11-03T14:27:47.910Z,34.30
2018-11-03T14:30:16.956Z,34.16
2018-11-03T14:32:46.602Z,35.47
2018-11-03T14:35:16.124Z,35.09
2018-11-03T14:37:45.869Z,35.58
2018-11-03T14:40:15.803Z,36.37
2018-11-03T14:42:44.929Z,36.64
2018-11-03T14:45:15.452Z,36.65
2018-11-03T14:47:44.955Z,37.81
2018-11-03T14:50:14.061Z,38.19
2018-11-03T14:52:43.779Z,38.70
2018-11-03T14:55:13.713Z,39.10
2018-11-03T14:57:43.643Z,39.13
2018-11-03T15:00:15.028Z,39.19
2018-11-03T15:02:44.275Z,40.15
2018-11-03T15:05:13.841Z,41.82
2018-11-03T15:07:43.017Z,41.98
2018-11-03T15:10:12.437Z,42.30
2018-11-03T15:12:41.923Z,42.38
2018-11-03T15:15:12.689Z,43.36
2018-11-03T15:17:42.210Z,44.65
2018-11-03T15:20:12.789Z,44.38
2018-11-03T15:22:42.247Z,44.95
2018-11-03T15:25:15.736Z,45.56
2018-11-03T15:27:44.937Z,44.88
2018-11-03T15:30:15.195Z,44.44
2018-11-03T15:32:49.641Z,44.19
2018-11-03T15:35:26.709Z,44.60
2018-11-03T15:38:02.656Z,45.74
2018-11-03T15:40:37.726Z,46.91
2018-11-03T15:43:11.794Z,48.10
2018-11-03T15:45:40.613Z,49.65
2018-11-03T15:48:09.529Z,50.53
2018-11-03T15:50:49.969Z,51.06
2018-11-03T15:53:23.558Z,52.28
2018-11-03T15:56:00.697Z,52.91
2018-11-03T15:58:32.530Z,53.66
2018-11-03T16:03:40.623Z,55.00
2018-11-03T16:06:09.682Z,55.52
2018-11-03T16:08:39.140Z,56.04
2018-11-03T16:11:09.518Z,55.98
2018-11-03T16:13:38.491Z,56.70
2018-11-03T16:16:07.581Z,57.40
2018-11-03T16:18:36.586Z,57.49
2018-11-03T16:21:06.410Z,57.74
2018-11-03T16:23:46.071Z,58.23
2018-11-03T16:26:20.395Z,58.64
2018-11-03T16:29:05.630Z,58.39
2018-11-03T16:31:35.181Z,58.96
2018-11-03T16:34:07.831Z,60.23
2018-11-03T16:36:38.602Z,60.28
2018-11-03T16:39:21.758Z,60.42
2018-11-03T16:41:57.670Z,60.32
2018-11-03T16:44:32.499Z,60.90
2018-11-03T16:47:01.626Z,61.75
2018-11-03T16:49:30.411Z,61.76
2018-11-03T16:51:59.644Z,62.02
2018-11-03T16:54:29.616Z,62.10
2018-11-03T16:56:58.765Z,62.14
2018-11-03T16:59:28.573Z,61.78
2018-11-03T17:01:57.212Z,62.08
2018-11-03T17:04:27.099Z,62.48
2018-11-03T17:06:56.717Z,61.79
2018-11-03T17:09:26.331Z,62.24
2018-11-03T17:11:55.782Z,62.35
2018-11-03T17:14:24.375Z,62.04
2018-11-03T17:16:53.394Z,62.40
2018-11-03T17:19:22.594Z,62.92
2018-11-03T17:21:52.360Z,63.49
2018-11-03T17:24:21.517Z,64.21
2018-11-03T17:26:50.717Z,63.87
2018-11-03T17:29:20.793Z,63.90
2018-11-03T17:31:50.055Z,63.97
2018-11-03T17:34:18.654Z,64.24
2018-11-03T17:36:47.584Z,64.50
2018-11-03T17:39:16.141Z,63.68
2018-11-03T17:41:45.209Z,64.39
2018-11-03T17:44:14.245Z,64.18
2018-11-03T17:46:43.473Z,64.05
2018-11-03T17:49:12.788Z,64.88
2018-11-03T17:51:42.285Z,65.46
2018-11-03T17:54:12.377Z,65.32
2018-11-03T17:56:42.313Z,65.83
2018-11-03T17:59:12.335Z,66.40
2018-11-03T18:01:42.666Z,66.94
2018-11-03T18:04:16.101Z,66.98
2018-11-03T18:06:50.987Z,67.36
2018-11-03T18:09:28.329Z,67.45
2018-11-03T18:11:58.467Z,67.55
2018-11-03T18:17:10.643Z,67.85
2018-11-03T18:19:45.092Z,68.89
2018-11-03T18:22:20.668Z,68.96
2018-11-03T18:25:00.455Z,69.17
2018-11-03T18:27:32.847Z,70.37
2018-11-03T18:30:10.093Z,70.17
2018-11-03T18:32:53.721Z,69.97
2018-11-03T18:35:29.249Z,69.65
2018-11-03T18:38:04.089Z,70.23
2018-11-03T18:40:40.991Z,70.37
2018-11-03T18:43:10.145Z,70.82
2018-11-03T18:45:39.036Z,71.00
2018-11-03T18:48:07.951Z,71.18
2018-11-03T18:50:37.126Z,71.22
2018-11-03T18:53:08.166Z,71.89
2018-11-03T18:55:37.126Z,71.45
2018-11-03T18:58:06.623Z,72.56
2018-11-03T19:00:36.593Z,72.73
2018-11-03T19:03:05.458Z,72.56
2018-11-03T19:05:35.434Z,73.34
2018-11-03T19:08:05.129Z,73.79
2018-11-03T19:10:35.289Z,73.49
2018-11-03T19:13:04.196Z,74.04
2018-11-03T19:15:33.456Z,73.85
2018-11-03T19:18:02.603Z,73.55
2018-11-03T19:20:33.038Z,73.53
2018-11-03T19:23:01.605Z,73.89
2018-11-03T19:25:30.704Z,74.14
2018-11-03T19:28:02.034Z,73.48
2018-11-03T19:30:31.938Z,73.68
2018-11-03T19:33:01.321Z,73.89
2018-11-03T19:35:34.089Z,73.95
2018-11-03T19:38:03.295Z,74.33
2018-11-03T19:40:32.532Z,74.57
2018-11-03T19:43:03.209Z,75.09
2018-11-03T19:45:32.673Z,75.41
2018-11-03T19:48:01.625Z,75.45
2018-11-03T19:50:30.176Z,75.53
2018-11-03T19:52:59.073Z,75.55
2018-11-03T19:55:28.371Z,75.43
2018-11-03T19:57:58.480Z,75.08
2018-11-03T20:00:27.656Z,75.45
2018-11-03T20:02:56.833Z,75.18
2018-11-03T20:05:25.585Z,75.41
2018-11-03T20:07:55.145Z,75.51
2018-11-03T20:10:24.241Z,75.90
2018-11-03T20:12:53.126Z,76.12
2018-11-03T20:15:22.640Z,75.99
2018-11-03T20:17:51.892Z,76.67
2018-11-03T20:20:21.957Z,76.99
2018-11-03T20:22:50.981Z,77.21
2018-11-03T20:25:20.639Z,77.08
2018-11-03T20:27:49.823Z,77.12
2018-11-03T20:30:18.940Z,77.38
2018-11-03T20:32:47.564Z,77.32
2018-11-03T20:35:17.881Z,77.35
2018-11-03T20:37:47.327Z,77.11
2018-11-03T20:40:16.695Z,77.47
2018-11-03T20:42:46.148Z,77.45
2018-11-03T20:45:15.968Z,77.93
2018-11-03T20:47:46.677Z,78.17
2018-11-03T20:50:15.556Z,78.54
2018-11-03T20:52:44.619Z,78.64
2018-11-03T20:55:13.714Z,78.94
2018-11-03T20:57:43.200Z,78.81
2018-11-03T21:00:14.705Z,79.42
2018-11-03T21:02:45.507Z,79.14
2018-11-03T21:05:14.703Z,79.12
2018-11-03T21:07:43.968Z,79.50
2018-11-03T21:10:13.374Z,79.61
2018-11-03T21:12:43.807Z,79.94
2018-11-03T21:15:13.586Z,80.00
2018-11-03T21:17:42.512Z,80.00
2018-11-03T21:20:12.567Z,80.09
2018-11-03T21:22:41.761Z,80.28
2018-11-03T21:25:11.220Z,80.47
2018-11-03T21:27:40.965Z,80.90
2018-11-03T21:30:11.460Z,80.73
2018-11-03T21:32:41.271Z,80.67
2018-11-03T21:35:10.499Z,81.14
2018-11-03T21:37:39.839Z,81.38
2018-11-03T21:40:08.866Z,81.24
2018-11-03T21:42:37.958Z,81.31
2018-11-03T21:45:07.648Z,81.04
2018-11-03T21:47:36.643Z,80.85
2018-11-03T21:50:05.845Z,80.75
2018-11-03T21:52:35.081Z,80.75
2018-11-03T21:55:05.053Z,80.65
2018-11-03T21:57:35.137Z,80.75
2018-11-03T22:00:05.217Z,80.66
2018-11-03T22:02:35.225Z,80.59
2018-11-03T22:05:04.400Z,80.89
2018-11-03T22:07:34.021Z,80.68
2018-11-03T22:10:03.401Z,80.37
2018-11-03T22:12:32.613Z,80.49
2018-11-03T22:15:02.434Z,80.41
2018-11-03T22:17:32.603Z,80.62
2018-11-03T22:20:01.654Z,80.72
2018-11-03T22:22:31.668Z,80.75
2018-11-03T22:25:00.907Z,80.83
2018-11-03T22:27:30.618Z,80.65
2018-11-03T22:30:00.256Z,80.53
2018-11-03T22:32:29.267Z,80.64
2018-11-03T22:34:58.768Z,80.44
2018-11-03T22:37:28.369Z,80.58
2018-11-03T22:39:58.196Z,80.96
2018-11-03T22:42:27.657Z,81.13
2018-11-03T22:44:57.573Z,80.93
2018-11-03T22:47:27.333Z,80.59
2018-11-03T22:49:56.519Z,80.61
2018-11-03T22:52:25.796Z,80.41
2018-11-03T22:54:55.462Z,80.64
2018-11-03T22:57:24.542Z,80.64
2018-11-03T22:59:53.510Z,80.50
2018-11-03T23:02:22.456Z,80.48
2018-11-03T23:04:51.929Z,80.69
2018-11-03T23:07:21.168Z,80.47
2018-11-03T23:09:51.096Z,80.26
2018-11-03T23:12:20.000Z,80.58
2018-11-03T23:14:50.179Z,80.53
2018-11-03T23:17:19.007Z,80.65
2018-11-03T23:19:48.223Z,80.46
2018-11-03T23:22:17.879Z,80.40
2018-11-03T23:24:46.504Z,80.59
2018-11-03T23:27:16.009Z,80.91
2018-11-03T23:29:44.895Z,80.93
2018-11-03T23:32:13.742Z,80.73
2018-11-03T23:34:43.442Z,80.42
2018-11-03T23:37:12.545Z,80.43
2018-11-03T23:39:42.156Z,80.29
2018-11-03T23:42:11.725Z,80.65
2018-11-03T23:44:40.625Z,81.00
2018-11-03T23:47:10.173Z,80.98
2018-11-03T23:49:39.531Z,80.88
2018-11-03T23:52:09.883Z,80.88
2018-11-03T23:54:39.154Z,80.74
2018-11-03T23:57:08.110Z,80.74
2018-11-03T23:59:37.660Z,80.76
